This is the latest recevied weather packets stored in our database for station/object KC9DK. If no packets are shown the sender has not sent any weather packets the latest 1 day(s).
| Time | Temp. | Humidity | Pressure | Rain* | Wind** | Luminosity | Snow |
|---|---|---|---|---|---|---|---|
| 1778097027 | 16.67° C | 57% | 1015.6 hPa | 0 mm | - | 318 W/m² | - |
| 1778095815 | 16.67° C | 52% | 1015.9 hPa | 0 mm | - | 577 W/m² | - |
| 1778094298 | 15° C | 61% | 1015.7 hPa | 0 mm | - | 627 W/m² | - |
| 1778093692 | 14.44° C | 63% | 1015.8 hPa | 0 mm | - | 299 W/m² | - |
| 1778093086 | 15.56° C | 52% | 1015.8 hPa | 0 mm | - | 355 W/m² | - |
| 1778092783 | 15.56° C | 56% | 1015.9 hPa | 0 mm | - | 537 W/m² | - |
| 1778091570 | 15.56° C | 55% | 1015.9 hPa | 0 mm | - | 531 W/m² | - |
| 1778091268 | 15.56° C | 55% | 1015.9 hPa | 0 mm | - | 418 W/m² | - |
| 1778089751 | 15° C | 56% | 1015.7 hPa | 0 mm | - | 912 W/m² | - |
| 1778089449 | 15° C | 56% | 1015.6 hPa | 0 mm | - | 951 W/m² | - |
| 1778089146 | 15° C | 54% | 1015.8 hPa | 0 mm | - | 914 W/m² | - |
| 1778087631 | 13.33° C | 63% | 1016 hPa | 0 mm | - | 522 W/m² | - |
| 1778087024 | 12.78° C | 65% | 1016 hPa | 0 mm | - | 419 W/m² | - |
| 1778086718 | 12.78° C | 66% | 1016.3 hPa | 0 mm | - | 474 W/m² | - |
| 1778084896 | 12.22° C | 70% | 1016.2 hPa | 0 mm | - | 198 W/m² | - |
| 1778079226 | 11.11° C | 79% | 1015.9 hPa | 0 mm | - | 101 W/m² | - |
| 1778078924 | 11.11° C | 78% | 1015.4 hPa | 0 mm | - | 148 W/m² | - |
| 1778078620 | 11.11° C | 77% | 1015.5 hPa | 0 mm | - | 123 W/m² | - |
| 1778078319 | 11.67° C | 77% | 1015.4 hPa | 0 mm | - | 164 W/m² | - |
| 1778077714 | 11.67° C | 74% | 1015 hPa | 0 mm | - | 353 W/m² | - |
| 1778075595 | 11.67° C | 80% | 1014.5 hPa | 0 mm | - | 458 W/m² | - |
| 1778074382 | 10.56° C | 82% | 1014.3 hPa | 0 mm | - | 250 W/m² | - |
| 1778073776 | 10° C | 85% | 1014.5 hPa | 0 mm | - | 199 W/m² | - |
| 1778071052 | 9.44° C | 90% | 1014 hPa | 0 mm | - | 97 W/m² | - |
| 1778070447 | 8.89° C | 91% | 1013.9 hPa | 0 mm | - | 114 W/m² | - |
* Rain latest hour (hover to see other rain measurements)
** Current wind speed in m/s (hover to see current wind gust speed)